Time;durP1;ratioP1;P1;durP2;ratioP2;P2;SDS_P1;SDS_P2;PMS_P1;PMS_P2;Temp;Humidity;BMP_temperature;BMP_pressure;BME280_temperature;BME280_humidity;BME280_pressure;Samples;Min_cycle;Max_cycle;Signal;HPM_P1;HPM_P2
2022/08/13 00:01:40;;;;;;;3.83;3.30;;;18.50;99.90;;;;;;5029226;28;20450;-71
2022/08/13 00:04:12;;;;;;;4.03;2.88;;;18.50;99.90;;;;;;5029202;28;20037;-72
2022/08/13 00:09:10;;;;;;;4.05;2.97;;;18.50;99.90;;;;;;5029899;28;20103;-72
2022/08/13 00:14:24;;;;;;;5.65;3.40;;;18.40;99.90;;;;;;5027711;28;20053;-72
2022/08/13 00:16:52;;;;;;;4.47;3.03;;;18.40;99.90;;;;;;5026469;28;20384;-71
2022/08/13 00:19:19;;;;;;;3.28;2.97;;;18.40;99.90;;;;;;5026712;28;20045;-71
2022/08/13 00:21:46;;;;;;;3.60;3.17;;;18.40;99.90;;;;;;5025515;28;20549;-72
2022/08/13 00:24:12;;;;;;;3.80;2.90;;;18.30;99.90;;;;;;5026223;28;20068;-72
2022/08/13 00:26:37;;;;;;;3.45;2.88;;;18.30;99.90;;;;;;5010608;28;20431;-72
2022/08/13 00:29:03;;;;;;;3.33;3.03;;;18.20;99.90;;;;;;5028093;28;20042;-72
2022/08/13 00:31:30;;;;;;;3.55;3.08;;;18.20;99.90;;;;;;5022785;28;20044;-72
2022/08/13 00:33:56;;;;;;;3.78;3.28;;;18.20;99.90;;;;;;5027866;28;20087;-72
2022/08/13 00:36:23;;;;;;;5.53;3.10;;;18.10;99.90;;;;;;5025737;28;20049;-72
2022/08/13 00:38:50;;;;;;;4.40;3.25;;;18.10;99.90;;;;;;5025951;28;20061;-72
2022/08/13 00:44:01;;;;;;;4.07;3.55;;;18.00;99.90;;;;;;5027971;28;20075;-71
2022/08/13 00:46:27;;;;;;;7.13;3.65;;;18.00;99.90;;;;;;5025147;28;20510;-71
2022/08/13 00:48:54;;;;;;;3.88;3.42;;;17.80;99.90;;;;;;5046468;28;20054;-71
2022/08/13 00:51:26;;;;;;;3.95;3.65;;;17.70;99.90;;;;;;5031283;28;20046;-72
2022/08/13 00:53:54;;;;;;;3.60;3.30;;;17.70;99.90;;;;;;5031086;28;20049;-71
2022/08/13 00:56:22;;;;;;;3.75;3.40;;;17.70;99.90;;;;;;5048128;28;20087;-72
2022/08/13 00:58:49;;;;;;;4.32;3.20;;;17.80;99.90;;;;;;5027634;28;20534;-71
2022/08/13 01:01:15;;;;;;;4.18;3.08;;;17.70;99.90;;;;;;5031179;28;20042;-72
2022/08/13 01:03:41;;;;;;;3.60;3.30;;;17.80;99.90;;;;;;5038767;28;20046;-72
2022/08/13 01:06:08;;;;;;;3.38;3.08;;;17.80;99.90;;;;;;5029826;28;20442;-72
2022/08/13 01:08:40;;;;;;;4.43;3.42;;;17.80;99.90;;;;;;5039216;28;20042;-71
2022/08/13 01:11:08;;;;;;;4.00;3.60;;;17.70;99.90;;;;;;5030508;28;20049;-72
2022/08/13 01:13:35;;;;;;;7.00;3.45;;;17.70;99.90;;;;;;5032085;28;20057;-72
2022/08/13 01:16:07;;;;;;;4.75;3.78;;;17.70;99.90;;;;;;5030387;28;21308;-72
2022/08/13 01:18:36;;;;;;;4.35;3.95;;;17.70;99.90;;;;;;5030410;28;20068;-72
2022/08/13 01:21:15;;;;;;;9.52;4.57;;;17.60;99.90;;;;;;5030753;28;20052;-72
2022/08/13 01:23:45;;;;;;;4.50;4.10;;;17.50;99.90;;;;;;5046002;28;20041;-72
2022/08/13 01:26:12;;;;;;;4.20;3.83;;;17.40;99.90;;;;;;5024060;28;20495;-72
2022/08/13 01:28:39;;;;;;;5.57;3.75;;;17.50;99.90;;;;;;5025364;28;20434;-72
2022/08/13 01:31:06;;;;;;;4.07;3.60;;;17.50;99.90;;;;;;5029626;28;20498;-72
2022/08/13 01:33:36;;;;;;;5.35;3.97;;;17.50;99.90;;;;;;5029982;28;20049;-71
2022/08/13 01:36:03;;;;;;;5.25;3.88;;;17.40;99.90;;;;;;5029479;28;20037;-71
2022/08/13 01:38:30;;;;;;;4.10;3.70;;;17.40;99.90;;;;;;5029046;28;20049;-72
2022/08/13 01:40:56;;;;;;;4.20;3.75;;;17.40;99.90;;;;;;5013455;28;20080;-71
2022/08/13 01:43:24;;;;;;;4.47;3.80;;;17.40;99.90;;;;;;5030336;28;20082;-72
2022/08/13 01:45:51;;;;;;;7.22;3.80;;;17.30;99.90;;;;;;5029411;28;20056;-72
2022/08/13 01:51:08;;;;;;;6.72;4.50;;;17.30;99.90;;;;;;5028999;28;20482;-72
2022/08/13 01:53:34;;;;;;;5.32;4.40;;;17.30;99.90;;;;;;5031746;28;20116;-72
2022/08/13 01:56:01;;;;;;;4.53;4.07;;;17.30;99.90;;;;;;5025284;28;20045;-71
2022/08/13 01:58:29;;;;;;;4.75;4.25;;;17.30;99.90;;;;;;5023367;28;20045;-72
2022/08/13 02:01:00;;;;;;;6.93;4.72;;;17.30;99.90;;;;;;5026776;28;20042;-71
2022/08/13 02:03:26;;;;;;;4.32;3.92;;;17.30;99.90;;;;;;5030583;28;20037;-71
2022/08/13 02:05:52;;;;;;;6.13;5.13;;;17.20;99.90;;;;;;5028707;28;20056;-72
2022/08/13 02:08:23;;;;;;;5.13;4.32;;;17.20;99.90;;;;;;5029231;28;20038;-72
2022/08/13 02:10:54;;;;;;;6.03;4.25;;;17.20;99.90;;;;;;5030903;28;20036;-72
2022/08/13 02:13:29;;;;;;;5.90;4.77;;;17.20;99.90;;;;;;5031123;28;20045;-71
2022/08/13 02:15:55;;;;;;;5.85;4.80;;;17.10;99.90;;;;;;5028729;28;20137;-71
2022/08/13 02:18:24;;;;;;;5.82;4.60;;;17.10;99.90;;;;;;5029651;28;20112;-72
2022/08/13 02:20:58;;;;;;;5.40;4.90;;;17.10;99.90;;;;;;5028349;28;20041;-71
2022/08/13 02:23:27;;;;;;;8.20;5.25;;;17.10;99.90;;;;;;5020003;28;20029;-72
2022/08/13 02:25:53;;;;;;;5.50;4.85;;;17.10;99.90;;;;;;5028058;28;20115;-72
2022/08/13 02:28:20;;;;;;;7.47;4.70;;;17.10;99.90;;;;;;5010813;28;20073;-72
2022/08/13 02:30:51;;;;;;;5.45;4.82;;;17.00;99.90;;;;;;5027201;28;20112;-72
2022/08/13 02:33:17;;;;;;;;;;;17.00;99.90;;;;;;5021247;28;20052;-72
2022/08/13 02:35:44;;;;;;;5.38;4.88;;;17.00;99.90;;;;;;5027251;28;19925;-72
2022/08/13 02:38:12;;;;;;;5.38;4.88;;;17.00;99.90;;;;;;5029621;28;20095;-71
2022/08/13 02:43:23;;;;;;;4.63;4.22;;;16.90;99.90;;;;;;5030429;28;20120;-72
2022/08/13 02:45:49;;;;;;;6.65;4.45;;;16.90;99.90;;;;;;5022256;28;20038;-71
2022/08/13 02:48:17;;;;;;;4.63;4.22;;;16.90;99.90;;;;;;5029309;28;20079;-71
2022/08/13 02:50:45;;;;;;;6.32;4.55;;;16.90;99.90;;;;;;5027683;28;20061;-71
2022/08/13 02:53:13;;;;;;;5.20;4.70;;;16.80;99.90;;;;;;5026417;28;20167;-72
2022/08/13 02:55:40;;;;;;;6.45;4.45;;;16.80;99.90;;;;;;5028641;28;20053;-72
2022/08/13 02:58:07;;;;;;;8.13;4.28;;;16.70;99.90;;;;;;5027392;28;20042;-72
2022/08/13 03:00:32;;;;;;;4.38;3.97;;;16.70;99.90;;;;;;5028397;28;20099;-72
2022/08/13 03:02:59;;;;;;;8.82;4.95;;;16.70;99.90;;;;;;5024507;28;20042;-71
2022/08/13 03:05:30;;;;;;;4.90;4.30;;;16.70;99.90;;;;;;5027022;28;20485;-71
2022/08/13 03:07:56;;;;;;;6.15;4.28;;;16.70;99.90;;;;;;5025483;28;20042;-72
2022/08/13 03:10:23;;;;;;;5.13;4.63;;;16.60;99.90;;;;;;5030536;28;20050;-72
2022/08/13 03:12:55;;;;;;;4.70;4.30;;;16.60;99.90;;;;;;5031695;28;20048;-72
2022/08/13 03:15:22;;;;;;;;;;;16.60;99.90;;;;;;5030747;28;20056;-72
2022/08/13 03:17:47;;;;;;;4.93;4.43;;;16.60;99.90;;;;;;5030347;28;19927;-72
2022/08/13 03:20:16;;;;;;;5.05;4.50;;;16.50;99.90;;;;;;5030096;28;20049;-71
2022/08/13 03:22:51;;;;;;;4.95;4.55;;;16.50;99.90;;;;;;5010747;28;20038;-72
2022/08/13 03:25:17;;;;;;;6.43;4.72;;;16.50;99.90;;;;;;5025630;28;20040;-71
2022/08/13 03:27:44;;;;;;;5.15;4.70;;;16.40;99.90;;;;;;5010686;28;20037;-71
2022/08/13 03:30:11;;;;;;;5.15;4.70;;;16.40;99.90;;;;;;5029779;28;20124;-72
2022/08/13 03:32:42;;;;;;;5.65;4.82;;;16.40;99.90;;;;;;5030118;28;20060;-72
2022/08/13 03:35:13;;;;;;;4.85;4.35;;;16.40;99.90;;;;;;5030517;28;20128;-72
2022/08/13 03:37:40;;;;;;;6.15;4.95;;;16.30;99.90;;;;;;5027085;28;20068;-72
2022/08/13 03:40:07;;;;;;;5.25;4.63;;;16.30;99.90;;;;;;5027848;28;20499;-72
2022/08/13 03:42:33;;;;;;;5.85;4.75;;;16.30;99.90;;;;;;5023848;28;20095;-72
2022/08/13 03:44:59;;;;;;;5.30;4.80;;;16.30;99.90;;;;;;5022814;28;20041;-71
2022/08/13 03:47:25;;;;;;;5.20;4.70;;;16.20;99.90;;;;;;5028037;28;20044;-72
2022/08/13 03:49:50;;;;;;;5.35;4.85;;;16.30;99.90;;;;;;5027405;28;20037;-72
2022/08/13 03:52:16;;;;;;;7.68;5.20;;;16.30;99.90;;;;;;5028104;28;20049;-71
2022/08/13 03:54:41;;;;;;;5.72;4.93;;;16.20;99.90;;;;;;5021217;28;20512;-71
2022/08/13 03:57:08;;;;;;;5.63;5.13;;;16.20;99.90;;;;;;5026070;28;20041;-71
2022/08/13 03:59:33;;;;;;;5.57;5.03;;;16.20;99.90;;;;;;5025175;28;20135;-71
2022/08/13 04:02:01;;;;;;;5.38;4.85;;;16.20;99.90;;;;;;5021952;28;20483;-72
2022/08/13 04:04:28;;;;;;;5.20;4.70;;;16.20;99.90;;;;;;5026257;28;20037;-71
2022/08/13 04:06:53;;;;;;;6.80;4.53;;;16.10;99.90;;;;;;5025749;28;20088;-71
2022/08/13 04:09:19;;;;;;;5.32;4.80;;;16.00;99.90;;;;;;5027910;28;20073;-71
2022/08/13 04:11:46;;;;;;;6.30;5.60;;;16.00;99.90;;;;;;5027241;28;20039;-71
2022/08/13 04:14:12;;;;;;;5.40;4.28;;;15.90;99.90;;;;;;5024221;28;20079;-72
2022/08/13 04:16:40;;;;;;;5.13;4.63;;;16.00;99.90;;;;;;5010484;28;20112;-71
2022/08/13 04:19:06;;;;;;;7.25;5.00;;;16.00;99.90;;;;;;5026471;28;20518;-71
2022/08/13 04:21:33;;;;;;;5.32;4.85;;;15.90;99.90;;;;;;5025736;28;20098;-71
2022/08/13 04:24:03;;;;;;;5.15;4.75;;;15.90;99.90;;;;;;5030258;28;20088;-71
2022/08/13 04:26:30;;;;;;;5.30;4.80;;;15.90;99.90;;;;;;5029517;28;20064;-72
2022/08/13 04:28:57;;;;;;;5.60;5.10;;;15.90;99.90;;;;;;5028414;28;20073;-72
2022/08/13 04:31:23;;;;;;;5.90;5.40;;;15.90;99.90;;;;;;5030044;28;20042;-71
2022/08/13 04:33:50;;;;;;;7.07;4.82;;;15.90;99.90;;;;;;5030555;28;20128;-72
2022/08/13 04:36:16;;;;;;;7.03;5.15;;;15.90;99.90;;;;;;5030314;28;20072;-72
2022/08/13 04:38:42;;;;;;;5.65;4.95;;;15.90;99.90;;;;;;5030444;28;20148;-72
2022/08/13 04:41:08;;;;;;;7.07;5.20;;;16.00;99.90;;;;;;5032266;28;20045;-71
2022/08/13 04:43:34;;;;;;;6.97;5.25;;;16.00;99.90;;;;;;5010186;28;20038;-71
2022/08/13 04:46:00;;;;;;;5.97;5.20;;;16.00;99.90;;;;;;5031312;28;20044;-72
2022/08/13 04:48:33;;;;;;;6.22;5.60;;;16.00;99.90;;;;;;5030989;28;20360;-71
2022/08/13 04:51:00;;;;;;;5.70;5.20;;;16.00;99.90;;;;;;5024057;28;20045;-71
2022/08/13 04:53:37;;;;;;;5.57;4.80;;;16.00;99.90;;;;;;5033033;28;20049;-71
2022/08/13 04:56:03;;;;;;;6.15;5.57;;;16.00;99.90;;;;;;5026642;28;20049;-71
2022/08/13 04:58:35;;;;;;;7.85;5.00;;;16.00;99.90;;;;;;5033320;28;20044;-71
2022/08/13 05:01:09;;;;;;;5.50;5.00;;;16.00;99.90;;;;;;5033084;28;20053;-72
2022/08/13 05:03:38;;;;;;;7.13;5.00;;;16.00;99.90;;;;;;5031222;28;20029;-71
2022/08/13 05:06:05;;;;;;;5.70;5.10;;;16.10;99.90;;;;;;5045834;28;20042;-71
2022/08/13 05:08:32;;;;;;;5.55;5.10;;;16.00;99.90;;;;;;5032206;28;20384;-71
2022/08/13 05:10:59;;;;;;;5.53;4.82;;;16.20;99.90;;;;;;5032719;28;20049;-71
2022/08/13 05:13:29;;;;;;;5.15;4.60;;;16.20;99.90;;;;;;5032962;28;20049;-71
2022/08/13 05:15:57;;;;;;;5.50;4.45;;;16.30;99.90;;;;;;5045343;28;20041;-71
2022/08/13 05:18:23;;;;;;;4.85;4.20;;;16.30;99.90;;;;;;5021790;28;20483;-72
2022/08/13 05:20:52;;;;;;;4.95;4.38;;;16.30;99.90;;;;;;5032019;28;20060;-71
2022/08/13 05:23:19;;;;;;;5.95;4.70;;;16.40;99.90;;;;;;5030527;28;20120;-71
2022/08/13 05:25:45;;;;;;;7.63;4.82;;;16.50;99.90;;;;;;5030300;28;20037;-72
2022/08/13 05:28:11;;;;;;;4.93;4.30;;;16.60;99.90;;;;;;5030927;28;20490;-71
2022/08/13 05:30:39;;;;;;;4.90;4.38;;;16.70;99.90;;;;;;5029963;28;20077;-72
2022/08/13 05:33:17;;;;;;;4.78;4.38;;;16.80;99.90;;;;;;5031152;28;20132;-71
2022/08/13 05:35:48;;;;;;;5.05;4.45;;;16.90;99.90;;;;;;5032274;28;20041;-71
2022/08/13 05:38:20;;;;;;;5.65;4.15;;;17.00;99.90;;;;;;5029547;28;20506;-71
2022/08/13 05:40:46;;;;;;;7.35;4.40;;;17.00;99.90;;;;;;5028423;28;20046;-72
2022/08/13 05:43:14;;;;;;;5.50;4.78;;;17.10;99.90;;;;;;5028129;28;20045;-71
2022/08/13 05:46:08;;;;;;;5.38;4.40;;;17.20;99.90;;;;;;5031809;28;20044;-71
2022/08/13 05:48:37;;;;;;;6.03;4.53;;;17.40;99.90;;;;;;5021858;28;20507;-71
2022/08/13 05:51:05;;;;;;;5.57;5.18;;;17.50;99.90;;;;;;5031666;28;20046;-72
2022/08/13 05:53:32;;;;;;;6.43;4.47;;;17.60;99.90;;;;;;5048418;23;20087;-68
2022/08/13 05:55:58;;;;;;;4.97;4.45;;;17.90;99.90;;;;;;5043081;28;20583;-68
2022/08/13 05:58:24;;;;;;;5.85;4.50;;;18.40;99.90;;;;;;5043718;28;20052;-68
2022/08/13 06:03:35;;;;;;;4.43;3.72;;;20.80;99.90;;;;;;5043278;28;20045;-68
2022/08/13 06:06:04;;;;;;;6.00;3.80;;;22.60;99.90;;;;;;5041817;28;20033;-68
2022/08/13 06:08:36;;;;;;;5.57;3.83;;;23.80;98.70;;;;;;5043199;28;20079;-68
2022/08/13 06:11:08;;;;;;;5.15;3.53;;;24.90;95.80;;;;;;5049979;28;20513;-68
2022/08/13 06:13:38;;;;;;;3.20;2.40;;;26.00;92.90;;;;;;5049883;28;20063;-68
2022/08/13 06:16:09;;;;;;;3.42;2.60;;;26.90;90.40;;;;;;5050889;28;20086;-68
2022/08/13 06:18:37;;;;;;;5.43;2.65;;;28.10;79.30;;;;;;5041045;28;20048;-68
2022/08/13 06:21:06;;;;;;;2.78;2.50;;;28.50;77.60;;;;;;5050328;28;20049;-68
2022/08/13 06:23:36;;;;;;;4.45;2.35;;;28.70;81.30;;;;;;5050509;28;20075;-68
2022/08/13 06:26:04;;;;;;;5.60;3.00;;;29.30;80.20;;;;;;5052668;28;20044;-68
2022/08/13 06:28:32;;;;;;;5.38;2.38;;;30.00;78.00;;;;;;5048743;28;20244;-68
2022/08/13 06:31:05;;;;;;;5.57;2.30;;;;;;;;;;5047414;28;20048;-68
2022/08/13 06:33:33;;;;;;;2.83;2.30;;;31.00;70.00;;;;;;5051146;28;20076;-68
2022/08/13 06:36:08;;;;;;;4.55;2.55;;;31.40;70.50;;;;;;5050624;28;20076;-69
2022/08/13 06:38:37;;;;;;;3.85;2.35;;;31.40;62.20;;;;;;5052708;28;20051;-68
2022/08/13 06:41:05;;;;;;;3.15;2.10;;;31.00;65.90;;;;;;5050931;28;20047;-68
2022/08/13 06:43:35;;;;;;;4.55;2.15;;;30.70;61.30;;;;;;5051100;28;20040;-68
2022/08/13 06:46:03;;;;;;;2.10;1.90;;;30.90;61.10;;;;;;5049345;28;20048;-68
2022/08/13 06:48:29;;;;;;;5.10;2.03;;;31.10;61.10;;;;;;5045766;28;20511;-68
2022/08/13 06:50:55;;;;;;;7.10;2.10;;;30.50;62.20;;;;;;5046425;28;20037;-68
2022/08/13 06:53:21;;;;;;;2.95;2.40;;;30.90;63.00;;;;;;5038875;28;20064;-68
2022/08/13 06:55:49;;;;;;;3.70;2.10;;;30.50;61.50;;;;;;5042411;28;20053;-68
2022/08/13 06:58:16;;;;;;;4.78;2.13;;;31.40;59.90;;;;;;5045148;28;20059;-68
2022/08/13 07:00:43;;;;;;;5.93;2.00;;;32.00;63.00;;;;;;5048300;28;20049;-68
2022/08/13 07:03:12;;;;;;;3.85;2.30;;;32.50;60.00;;;;;;5042536;28;20029;-68
2022/08/13 07:05:41;;;;;;;4.30;2.00;;;32.30;57.40;;;;;;5046534;28;20080;-68
2022/08/13 07:08:08;;;;;;;2.22;2.03;;;32.00;59.10;;;;;;5047739;28;20040;-68
2022/08/13 07:10:35;;;;;;;3.38;2.00;;;31.60;59.30;;;;;;5047903;28;20140;-68
2022/08/13 07:13:02;;;;;;;6.28;1.90;;;32.40;60.50;;;;;;5047037;28;20056;-68
2022/08/13 07:15:29;;;;;;;6.20;2.20;;;32.90;60.90;;;;;;5067050;28;20044;-68
2022/08/13 07:17:56;;;;;;;3.10;2.05;;;32.90;58.70;;;;;;5049729;28;20045;-68
2022/08/13 07:20:23;;;;;;;3.58;1.80;;;32.80;56.00;;;;;;5043259;28;20033;-69
2022/08/13 07:22:49;;;;;;;2.85;1.90;;;32.70;56.70;;;;;;5062523;28;20402;-68
2022/08/13 07:25:17;;;;;;;2.30;1.90;;;33.30;58.80;;;;;;5049179;28;20037;-68
2022/08/13 07:27:44;;;;;;;3.03;1.88;;;33.20;56.30;;;;;;5048877;28;20155;-68
2022/08/13 07:30:14;;;;;;;5.38;1.92;;;33.90;56.30;;;;;;5050011;28;20048;-68
2022/08/13 07:32:40;;;;;;;2.90;1.60;;;33.70;55.20;;;;;;5044577;28;20057;-68
2022/08/13 07:35:08;;;;;;;3.35;1.55;;;33.70;53.70;;;;;;5026694;28;20041;-68
2022/08/13 07:37:36;;;;;;;6.20;1.40;;;33.60;55.20;;;;;;5032932;28;20470;-68
2022/08/13 07:40:06;;;;;;;3.67;1.92;;;33.40;53.80;;;;;;5048984;28;20055;-68
2022/08/13 07:42:35;;;;;;;;;;;33.20;55.20;;;;;;5050696;28;20033;-68
2022/08/13 07:45:02;;;;;;;2.80;1.67;;;32.90;54.00;;;;;;5047485;28;19927;-68
2022/08/13 07:47:29;;;;;;;5.72;2.67;;;33.30;54.10;;;;;;5063481;28;20124;-68
2022/08/13 07:49:58;;;;;;;2.90;1.40;;;33.30;53.90;;;;;;5039333;28;20048;-69
2022/08/13 07:52:26;;;;;;;5.03;1.60;;;33.20;54.40;;;;;;5063731;28;20051;-69
2022/08/13 07:54:52;;;;;;;3.55;1.42;;;33.10;52.90;;;;;;5035107;28;20079;-68
2022/08/13 07:57:18;;;;;;;6.60;1.55;;;32.60;54.00;;;;;;5046481;28;20052;-68
2022/08/13 07:59:43;;;;;;;3.40;1.55;;;32.70;54.60;;;;;;5048494;28;20128;-68
2022/08/13 08:02:12;;;;;;;3.50;1.40;;;32.20;54.50;;;;;;5046249;28;20072;-68
2022/08/13 08:04:37;;;;;;;1.50;1.40;;;31.80;56.70;;;;;;5048478;28;20091;-68
2022/08/13 08:07:04;;;;;;;4.78;1.30;;;30.70;56.70;;;;;;5032079;28;20371;-68
2022/08/13 08:09:30;;;;;;;3.42;1.38;;;30.20;57.80;;;;;;5049508;28;20485;-68
2022/08/13 08:14:47;;;;;;;;;;;29.60;56.70;;;;;;5051584;28;20041;-68
2022/08/13 08:17:13;;;;;;;3.60;1.30;;;29.00;58.20;;;;;;5048752;28;19921;-68
2022/08/13 08:19:42;;;;;;;6.45;1.63;;;29.00;60.50;;;;;;5047709;28;20132;-68
2022/08/13 08:22:11;;;;;;;1.90;1.55;;;28.80;59.90;;;;;;5049472;28;20526;-68
2022/08/13 08:24:37;;;;;;;3.15;1.50;;;28.40;58.30;;;;;;5046776;28;20053;-68
2022/08/13 08:27:05;;;;;;;3.80;1.60;;;28.30;60.70;;;;;;5047682;28;20735;-68
2022/08/13 08:29:32;;;;;;;7.70;1.35;;;28.10;59.70;;;;;;5043918;28;20044;-68
2022/08/13 08:31:59;;;;;;;2.40;1.30;;;28.00;59.90;;;;;;5047425;28;20040;-68
2022/08/13 08:34:26;;;;;;;3.88;1.40;;;28.00;60.00;;;;;;5048150;28;20055;-68
2022/08/13 08:36:55;;;;;;;2.75;1.30;;;28.00;60.50;;;;;;5049592;28;20091;-68
2022/08/13 08:45:08;;;;;;;3.92;1.50;;;28.10;60.80;;;;;;5022285;28;20057;-68
2022/08/13 08:47:35;;;;;;;1.77;1.13;;;28.30;62.60;;;;;;5042611;28;20041;-68
2022/08/13 08:50:02;;;;;;;2.03;1.20;;;28.20;60.30;;;;;;5050311;28;20037;-68
2022/08/13 08:55:15;;;;;;;2.30;1.40;;;28.40;58.80;;;;;;5048884;28;20375;-68
2022/08/13 08:57:44;;;;;;;1.63;1.38;;;28.40;60.30;;;;;;5054414;28;20162;-68
2022/08/13 09:00:14;;;;;;;3.45;1.25;;;28.40;59.90;;;;;;5042554;28;20245;-68
2022/08/13 09:02:40;;;;;;;2.90;1.20;;;28.50;60.40;;;;;;5046909;28;20033;-68
2022/08/13 09:05:12;;;;;;;2.33;1.35;;;28.50;59.90;;;;;;5038801;28;20113;-68
2022/08/13 09:07:39;;;;;;;3.78;1.58;;;28.40;58.40;;;;;;5048678;28;20072;-68
2022/08/13 09:10:06;;;;;;;1.45;1.10;;;28.50;60.70;;;;;;5048558;28;20044;-68
2022/08/13 09:12:32;;;;;;;3.25;1.50;;;28.50;58.40;;;;;;5049109;28;20175;-68
2022/08/13 09:14:59;;;;;;;2.80;1.30;;;28.50;58.30;;;;;;5052496;28;20049;-68
2022/08/13 09:17:28;;;;;;;3.70;1.48;;;28.60;58.00;;;;;;5030157;28;20105;-68
2022/08/13 09:19:55;;;;;;;2.95;1.45;;;28.60;58.80;;;;;;5047489;28;20053;-68
2022/08/13 09:22:24;;;;;;;4.50;1.45;;;28.70;58.50;;;;;;5048946;28;20041;-68
2022/08/13 09:24:52;;;;;;;2.80;1.35;;;28.70;58.00;;;;;;5053551;28;20033;-68
2022/08/13 09:27:19;;;;;;;3.97;1.60;;;28.80;58.90;;;;;;5035133;28;20041;-68
2022/08/13 09:29:45;;;;;;;1.88;1.20;;;28.90;58.30;;;;;;5068959;28;20025;-68
2022/08/13 09:32:14;;;;;;;4.47;1.30;;;28.90;58.90;;;;;;5048980;28;20035;-68
2022/08/13 09:34:44;;;;;;;1.85;1.35;;;29.00;55.80;;;;;;5046945;28;20037;-68
2022/08/13 09:37:10;;;;;;;5.35;1.20;;;29.10;57.40;;;;;;5051956;28;20041;-68
2022/08/13 09:39:45;;;;;;;3.17;1.50;;;29.30;58.80;;;;;;5052210;28;20052;-68
2022/08/13 09:42:18;;;;;;;2.28;1.38;;;29.20;55.20;;;;;;5052160;28;20118;-68
2022/08/13 09:44:45;;;;;;;1.50;1.40;;;29.20;56.30;;;;;;5046335;28;20033;-68
2022/08/13 09:47:11;;;;;;;3.83;1.40;;;29.30;56.90;;;;;;5047422;28;20040;-68
2022/08/13 09:49:37;;;;;;;1.25;1.13;;;29.40;55.00;;;;;;5042755;28;20050;-68
2022/08/13 09:52:04;;;;;;;2.22;1.10;;;29.40;54.90;;;;;;5026054;28;20052;-68
2022/08/13 09:54:30;;;;;;;2.33;1.30;;;29.40;59.20;;;;;;5049479;28;20053;-68
2022/08/13 09:56:58;;;;;;;3.25;1.25;;;29.40;56.60;;;;;;5039261;28;20545;-68
2022/08/13 09:59:24;;;;;;;3.35;1.40;;;29.50;58.40;;;;;;5034727;28;20116;-68
2022/08/13 10:01:50;;;;;;;2.53;1.23;;;29.70;57.90;;;;;;5066064;28;20122;-68
2022/08/13 10:04:18;;;;;;;3.42;1.20;;;29.80;55.40;;;;;;5051897;28;20110;-68
2022/08/13 10:06:45;;;;;;;2.20;1.17;;;29.70;55.00;;;;;;5042572;28;20063;-68
2022/08/13 10:09:12;;;;;;;1.20;1.20;;;29.70;53.50;;;;;;5050681;28;20123;-68
2022/08/13 10:11:37;;;;;;;3.13;1.20;;;29.80;55.60;;;;;;5045258;28;20057;-68
2022/08/13 10:14:03;;;;;;;3.08;1.52;;;29.90;54.90;;;;;;5060469;28;22753;-68
2022/08/13 10:16:29;;;;;;;3.53;1.33;;;30.00;55.10;;;;;;5037526;28;20473;-68
2022/08/13 10:18:55;;;;;;;2.03;1.27;;;30.10;57.00;;;;;;5042331;28;20037;-68
2022/08/13 10:21:21;;;;;;;2.28;1.20;;;30.20;56.40;;;;;;5044284;28;20040;-68
2022/08/13 10:23:47;;;;;;;1.55;1.20;;;30.20;55.80;;;;;;5046782;28;20413;-68
2022/08/13 10:26:17;;;;;;;3.15;1.40;;;30.10;52.00;;;;;;5030686;28;20033;-68
2022/08/13 10:28:42;;;;;;;1.42;1.33;;;30.10;54.50;;;;;;5060822;28;20087;-68
2022/08/13 10:31:09;;;;;;;1.85;1.10;;;30.20;55.00;;;;;;5051960;28;20453;-68
2022/08/13 10:33:36;;;;;;;2.88;1.23;;;30.30;56.30;;;;;;5046919;28;20045;-68
2022/08/13 10:36:04;;;;;;;1.33;1.10;;;30.40;55.20;;;;;;5049740;28;20110;-68
2022/08/13 10:38:29;;;;;;;2.83;1.40;;;30.30;53.00;;;;;;5050730;28;20513;-68
2022/08/13 10:40:57;;;;;;;9.02;1.52;;;30.30;53.00;;;;;;5047416;28;20045;-68
2022/08/13 10:43:23;;;;;;;2.10;1.17;;;30.50;55.30;;;;;;5042508;28;20132;-68
2022/08/13 10:45:55;;;;;;;2.30;1.30;;;30.60;53.20;;;;;;5058992;28;20475;-68
2022/08/13 10:48:20;;;;;;;1.38;1.27;;;30.60;56.10;;;;;;5032858;28;20042;-68
2022/08/13 10:50:46;;;;;;;2.83;1.38;;;30.50;55.40;;;;;;5048573;28;20678;-68
2022/08/13 10:53:55;;;;;;;5.03;1.38;;;30.50;53.20;;;;;;5047784;28;20060;-68
2022/08/13 10:56:00;;;;;;;1.40;1.30;;;30.60;52.90;;;;;;5043632;28;20095;-68
2022/08/13 10:58:26;;;;;;;4.75;1.40;;;30.70;56.30;;;;;;5046000;28;20048;-68
2022/08/13 11:00:52;;;;;;;3.42;1.10;;;30.70;52.70;;;;;;5062040;28;20049;-68
2022/08/13 11:03:18;;;;;;;1.40;1.30;;;30.60;54.50;;;;;;5046484;28;20664;-68
2022/08/13 11:05:43;;;;;;;1.50;1.00;;;30.60;53.50;;;;;;5049425;28;20079;-68
2022/08/13 11:08:12;;;;;;;1.73;1.30;;;30.60;52.20;;;;;;5050192;28;20384;-68
2022/08/13 11:10:38;;;;;;;2.38;0.90;;;30.70;53.00;;;;;;5049853;28;20036;-68
2022/08/13 11:13:05;;;;;;;1.25;1.08;;;30.80;54.50;;;;;;5049659;28;20445;-68
2022/08/13 11:15:33;;;;;;;2.35;1.27;;;30.90;55.00;;;;;;5048167;28;20053;-68
2022/08/13 11:17:59;;;;;;;3.17;1.20;;;30.90;54.10;;;;;;5043200;28;20368;-68
2022/08/13 11:20:27;;;;;;;1.92;1.40;;;31.00;51.90;;;;;;5049427;28;20044;-68
2022/08/13 11:22:55;;;;;;;2.33;1.20;;;31.10;53.70;;;;;;5048704;28;20056;-68
2022/08/13 11:25:22;;;;;;;3.17;1.27;;;31.00;51.00;;;;;;5049395;28;20029;-68
2022/08/13 11:27:49;;;;;;;1.50;1.27;;;31.00;50.90;;;;;;5050689;28;20064;-68
2022/08/13 11:30:16;;;;;;;3.50;1.40;;;31.00;51.20;;;;;;5044267;28;20064;-68
2022/08/13 11:32:42;;;;;;;1.75;0.93;;;30.90;50.80;;;;;;5048333;28;20143;-68
2022/08/13 11:35:09;;;;;;;1.23;1.08;;;30.90;52.80;;;;;;5045715;28;20123;-68
2022/08/13 11:37:35;;;;;;;1.90;1.27;;;31.00;53.90;;;;;;5025833;28;20147;-68
2022/08/13 11:40:03;;;;;;;2.25;1.23;;;30.60;49.20;;;;;;5042871;28;20049;-68
2022/08/13 11:42:29;;;;;;;5.80;1.30;;;30.90;52.90;;;;;;5049626;28;20536;-68
2022/08/13 11:44:55;;;;;;;4.28;1.17;;;30.90;52.30;;;;;;5049196;28;20109;-68
2022/08/13 11:47:21;;;;;;;4.30;1.40;;;30.90;52.60;;;;;;5040249;28;20041;-68
2022/08/13 11:49:46;;;;;;;1.70;1.20;;;31.00;52.30;;;;;;5042762;28;20060;-68
2022/08/13 11:52:12;;;;;;;2.45;1.13;;;31.10;54.70;;;;;;5046813;28;20516;-70
2022/08/13 11:54:37;;;;;;;1.65;1.50;;;31.10;53.90;;;;;;5063817;28;20049;-67
2022/08/13 11:57:05;;;;;;;1.92;1.13;;;31.10;52.50;;;;;;5045961;28;20126;-67
2022/08/13 11:59:30;;;;;;;1.48;1.20;;;31.10;52.10;;;;;;5044511;28;20043;-68
2022/08/13 12:01:56;;;;;;;1.70;1.20;;;31.10;51.50;;;;;;5044512;28;20040;-67
2022/08/13 12:04:21;;;;;;;2.83;1.27;;;31.10;53.90;;;;;;5047459;28;20116;-67
2022/08/13 12:06:47;;;;;;;1.88;1.25;;;31.30;53.90;;;;;;5050718;28;20037;-67
2022/08/13 12:09:12;;;;;;;2.80;1.30;;;31.40;51.90;;;;;;5049518;28;20037;-67
2022/08/13 12:11:38;;;;;;;1.80;1.20;;;31.50;54.20;;;;;;5049569;28;20173;-67
2022/08/13 12:14:04;;;;;;;1.58;1.08;;;31.50;53.20;;;;;;5049584;28;20047;-67
2022/08/13 12:16:29;;;;;;;1.63;1.30;;;31.50;51.10;;;;;;5049996;28;20041;-67
2022/08/13 12:18:55;;;;;;;1.25;1.15;;;31.50;53.10;;;;;;5047527;28;20127;-68
2022/08/13 12:21:21;;;;;;;2.13;1.20;;;31.50;49.50;;;;;;5047171;28;20352;-67
2022/08/13 12:23:46;;;;;;;1.48;1.10;;;31.60;54.30;;;;;;5049444;28;20047;-67
2022/08/13 12:26:12;;;;;;;1.73;1.20;;;31.60;50.70;;;;;;5050578;28;20032;-67
2022/08/13 12:28:38;;;;;;;2.33;1.25;;;31.50;51.30;;;;;;5049526;28;20033;-67
2022/08/13 12:31:07;;;;;;;1.48;1.38;;;31.50;50.40;;;;;;5049571;28;20446;-67
2022/08/13 12:33:36;;;;;;;1.73;1.30;;;31.60;52.90;;;;;;5049540;28;20044;-67
2022/08/13 12:36:02;;;;;;;1.30;1.20;;;31.50;50.80;;;;;;5045600;28;20375;-67
2022/08/13 12:38:28;;;;;;;1.95;1.40;;;31.50;49.70;;;;;;5039944;28;20103;-67
2022/08/13 12:40:54;;;;;;;1.35;1.20;;;31.50;50.50;;;;;;5049448;28;20095;-67
2022/08/13 12:43:20;;;;;;;1.52;1.42;;;31.60;51.10;;;;;;5050821;28;20060;-67
2022/08/13 12:45:46;;;;;;;1.40;1.30;;;31.60;51.80;;;;;;5054575;28;20787;-67
2022/08/13 12:48:14;;;;;;;5.10;1.30;;;31.60;51.00;;;;;;5054549;28;20041;-67
2022/08/13 12:50:43;;;;;;;1.95;1.02;;;31.60;49.80;;;;;;5053273;28;20044;-67
2022/08/13 12:53:09;;;;;;;1.77;1.60;;;31.70;49.80;;;;;;5039662;28;20053;-68
2022/08/13 12:55:36;;;;;;;2.13;1.50;;;31.70;50.90;;;;;;5047052;28;20059;-67
2022/08/13 12:58:13;;;;;;;1.38;1.27;;;31.70;50.70;;;;;;5046408;28;20041;-67
2022/08/13 13:00:38;;;;;;;3.20;2.00;;;31.70;51.00;;;;;;5047911;28;20049;-67
2022/08/13 13:03:04;;;;;;;2.20;1.48;;;31.50;49.90;;;;;;5044260;28;20087;-67
2022/08/13 13:05:30;;;;;;;4.40;1.50;;;;;;;;;;5053217;28;20072;-67
2022/08/13 13:07:57;;;;;;;3.85;1.40;;;32.10;49.70;;;;;;5054336;28;20040;-67
2022/08/13 13:10:22;;;;;;;3.92;1.52;;;31.90;51.00;;;;;;5035726;28;20159;-67
2022/08/13 13:12:48;;;;;;;3.33;1.38;;;32.10;51.10;;;;;;5044320;28;20678;-67
2022/08/13 13:15:13;;;;;;;2.53;1.58;;;31.90;50.20;;;;;;5050588;28;20037;-67
2022/08/13 13:17:40;;;;;;;3.83;1.40;;;32.00;49.40;;;;;;5053864;28;20083;-67